Airfield :
LOGIN :

Register | Disclaimer

   EN    FR    IT 

 










Legend :    VFR   Marginal VFR   IFR   Intensive IFR   Very Intensive IFR
Visi :
Ceiling :
>= 8 km
>= 3000ft
5 to 8 km
1000 to 3000 ft
1500m to 5 km
500 to 1000 ft
800 to 1500m
200 to 500 ft
< 800m
< 200 ft
Symbols :   Thunderstorms  Fog  Heavy snow  Heavy precipitations  Wind > 20 kt
SIGMETs :     Misc.  Thunderstorms  Icing  Turbulence  Mountain Waves  Volcanic Ashes







- Airport Elevation : 83 ft
- IATA code : LHR
- Download approach charts


EGLL - London Heathrow

CURRENT METAR :
  • 160820Z AUTO 21005KT 170V240 9999 NCD 04/04 Q1007 NOSIG

EXPIRED METARs :
  • 160750Z AUTO 17004KT 140V210 9999 NCD 03/03 Q1007 NOSIG
  • 160720Z AUTO 21006KT 190V280 9999 NCD 04/03 Q1006 NOSIG
  • 160650Z AUTO 21006KT 180V250 9999 NCD 05/04 Q1006 NOSIG
  • 160620Z AUTO 22006KT 190V250 9999 NCD 05/04 Q1006 NOSIG
  • 160550Z AUTO 21005KT 9999 NCD 05/04 Q1006 NOSIG

TAF TAF EGLL
Valid from the 16 at 06:00 until the 17 at 12:00 UTC


160501Z 1606/1712 21006KT 9999 FEW018
TEMPO 1606/1711 7000
PROB30 1606/1610 2000 BR
BECMG 1614/1617 14010KT
PROB30 1615/1619 4000 HZ
TEMPO 1619/1623 3500 +SHRA BKN012
BECMG 1620/1623 26010KT
PROB30
TEMPO 1623/1705 BKN008
BECMG 1705/1708 20005KT
PROB30
TEMPO 1705/1710 4000 BR BKN004
No reported NOTAMs for that airfield.
1 SIGMET reported for the London FIR (EGTT) :
 
Severe icing
EGTT SIGMET 03 VALID 160600/161000 EGRR
EGTT LONDON FIR SEV ICE FCST NE OF LINE N5428 E00428 - N5500 E00412 FL030/080 MOV NE 15KT WKN=



MET'MAP, your aeronautical weather chart ! - Copyright ORBIFLY December 2007 - Disclaimer

ORBIFLY MET'MAP TEAM :

Programming & Development : Alexandra Zaïnal
Concept & Development : Baudouin d'Aumeries
Co-Development & Prog : Marc-Olivier Méhu
Technical & hardware support : Manuel Goepfert

Contact : metmap@orbifly.com




SOURCES & CREDITS :

   NOAA